sensor_id;sensor_type;location;lat;lon;timestamp;pressure;altitude;pressure_sealevel;temperature;humidity
70323;BME280;57735;56.264;43.898;2023-08-21T00:01:52;100535.47;;;15.56;94.44
70323;BME280;57735;56.264;43.898;2023-08-21T00:04:23;100536.94;;;15.59;94.75
70323;BME280;57735;56.264;43.898;2023-08-21T00:06:56;100534.97;;;15.53;94.03
70323;BME280;57735;56.264;43.898;2023-08-21T00:09:26;100539.31;;;15.54;94.48
70323;BME280;57735;56.264;43.898;2023-08-21T00:11:57;100542.38;;;15.51;94.30
70323;BME280;57735;56.264;43.898;2023-08-21T00:14:28;100541.88;;;15.47;93.99
70323;BME280;57735;56.264;43.898;2023-08-21T00:16:59;100536.16;;;15.50;94.28
70323;BME280;57735;56.264;43.898;2023-08-21T00:19:30;100551.91;;;15.53;94.19
70323;BME280;57735;56.264;43.898;2023-08-21T00:22:01;100541.88;;;15.55;94.06
70323;BME280;57735;56.264;43.898;2023-08-21T00:24:32;100545.22;;;15.57;94.04
70323;BME280;57735;56.264;43.898;2023-08-21T00:27:05;100536.31;;;15.57;93.59
70323;BME280;57735;56.264;43.898;2023-08-21T00:29:36;100536.50;;;15.55;93.46
70323;BME280;57735;56.264;43.898;2023-08-21T00:32:09;100540.66;;;15.58;93.77
70323;BME280;57735;56.264;43.898;2023-08-21T00:34:42;100531.78;;;15.57;93.54
70323;BME280;57735;56.264;43.898;2023-08-21T00:37:13;100533.28;;;15.52;93.13
70323;BME280;57735;56.264;43.898;2023-08-21T00:39:44;100539.84;;;15.49;93.15
70323;BME280;57735;56.264;43.898;2023-08-21T00:42:17;100530.59;;;15.52;93.44
70323;BME280;57735;56.264;43.898;2023-08-21T00:44:48;100534.97;;;15.53;93.30
70323;BME280;57735;56.264;43.898;2023-08-21T00:47:18;100547.25;;;15.47;92.65
70323;BME280;57735;56.264;43.898;2023-08-21T00:49:50;100534.38;;;15.43;92.64
70323;BME280;57735;56.264;43.898;2023-08-21T00:52:21;100536.78;;;15.38;92.65
70323;BME280;57735;56.264;43.898;2023-08-21T00:54:52;100530.94;;;15.34;92.78
70323;BME280;57735;56.264;43.898;2023-08-21T00:57:23;100540.47;;;15.36;93.50
70323;BME280;57735;56.264;43.898;2023-08-21T00:59:54;100534.75;;;15.40;93.65
70323;BME280;57735;56.264;43.898;2023-08-21T01:02:25;100535.59;;;15.40;93.27
70323;BME280;57735;56.264;43.898;2023-08-21T01:04:56;100538.53;;;15.45;93.79
70323;BME280;57735;56.264;43.898;2023-08-21T01:07:27;100537.72;;;15.45;93.19
70323;BME280;57735;56.264;43.898;2023-08-21T01:10:08;100537.88;;;15.43;92.83
70323;BME280;57735;56.264;43.898;2023-08-21T01:12:47;100542.25;;;15.44;93.04
70323;BME280;57735;56.264;43.898;2023-08-21T01:15:20;100538.53;;;15.45;92.96
70323;BME280;57735;56.264;43.898;2023-08-21T01:17:52;100539.38;;;15.46;92.52
70323;BME280;57735;56.264;43.898;2023-08-21T01:20:23;100539.19;;;15.47;92.82
70323;BME280;57735;56.264;43.898;2023-08-21T01:22:54;100539.84;;;15.49;92.76
70323;BME280;57735;56.264;43.898;2023-08-21T01:25:25;100545.22;;;15.49;92.05
70323;BME280;57735;56.264;43.898;2023-08-21T01:27:56;100541.72;;;15.49;91.77
70323;BME280;57735;56.264;43.898;2023-08-21T01:30:28;100546.44;;;15.47;91.67
70323;BME280;57735;56.264;43.898;2023-08-21T01:33:09;100555.31;;;15.47;91.81
70323;BME280;57735;56.264;43.898;2023-08-21T01:35:42;100550.47;;;15.43;91.84
70323;BME280;57735;56.264;43.898;2023-08-21T01:38:13;100547.41;;;15.31;92.30
70323;BME280;57735;56.264;43.898;2023-08-21T01:40:46;100564.78;;;15.20;92.64
70323;BME280;57735;56.264;43.898;2023-08-21T01:43:17;100565.31;;;15.16;93.30
70323;BME280;57735;56.264;43.898;2023-08-21T01:45:49;100567.03;;;15.09;93.90
70323;BME280;57735;56.264;43.898;2023-08-21T01:48:22;100572.94;;;15.04;94.38
70323;BME280;57735;56.264;43.898;2023-08-21T01:50:56;100573.78;;;15.05;94.60
70323;BME280;57735;56.264;43.898;2023-08-21T01:53:26;100570.44;;;15.02;95.02
70323;BME280;57735;56.264;43.898;2023-08-21T01:55:57;100572.13;;;15.04;95.27
70323;BME280;57735;56.264;43.898;2023-08-21T01:58:28;100568.75;;;15.01;95.48
70323;BME280;57735;56.264;43.898;2023-08-21T02:00:59;100573.28;;;15.01;95.44
70323;BME280;57735;56.264;43.898;2023-08-21T02:03:30;100571.44;;;15.01;95.55
70323;BME280;57735;56.264;43.898;2023-08-21T02:06:01;100584.22;;;14.99;95.39
70323;BME280;57735;56.264;43.898;2023-08-21T02:08:32;100573.47;;;14.99;95.34
70323;BME280;57735;56.264;43.898;2023-08-21T02:11:03;100583.19;;;15.00;95.45
70323;BME280;57735;56.264;43.898;2023-08-21T02:13:39;100590.25;;;15.01;95.33
70323;BME280;57735;56.264;43.898;2023-08-21T02:16:10;100586.06;;;14.99;94.91
70323;BME280;57735;56.264;43.898;2023-08-21T02:18:40;100583.56;;;14.97;94.96
70323;BME280;57735;56.264;43.898;2023-08-21T02:21:12;100579.84;;;14.98;94.86
70323;BME280;57735;56.264;43.898;2023-08-21T02:23:43;100591.44;;;14.99;95.01
70323;BME280;57735;56.264;43.898;2023-08-21T02:26:15;100594.44;;;15.04;95.14
70323;BME280;57735;56.264;43.898;2023-08-21T02:28:47;100602.75;;;15.09;95.15
70323;BME280;57735;56.264;43.898;2023-08-21T02:31:17;100590.00;;;15.11;94.99
70323;BME280;57735;56.264;43.898;2023-08-21T02:33:49;100593.34;;;15.13;94.85
70323;BME280;57735;56.264;43.898;2023-08-21T02:36:20;100599.72;;;15.12;94.36
70323;BME280;57735;56.264;43.898;2023-08-21T02:38:51;100599.91;;;15.11;94.09
70323;BME280;57735;56.264;43.898;2023-08-21T02:41:22;100595.03;;;15.14;94.38
70323;BME280;57735;56.264;43.898;2023-08-21T02:43:53;100600.03;;;15.17;94.50
70323;BME280;57735;56.264;43.898;2023-08-21T02:46:24;100605.41;;;15.17;94.16
70323;BME280;57735;56.264;43.898;2023-08-21T02:48:55;100601.91;;;15.17;93.88
70323;BME280;57735;56.264;43.898;2023-08-21T02:51:26;100611.97;;;15.15;93.56
70323;BME280;57735;56.264;43.898;2023-08-21T02:53:56;100601.41;;;15.13;93.48
70323;BME280;57735;56.264;43.898;2023-08-21T02:56:27;100611.47;;;15.11;93.35
70323;BME280;57735;56.264;43.898;2023-08-21T02:59:00;100606.13;;;15.11;93.33
70323;BME280;57735;56.264;43.898;2023-08-21T03:01:33;100610.66;;;15.11;93.10
70323;BME280;57735;56.264;43.898;2023-08-21T03:04:05;100611.47;;;15.11;93.21
70323;BME280;57735;56.264;43.898;2023-08-21T03:06:36;100617.19;;;15.08;92.73
70323;BME280;57735;56.264;43.898;2023-08-21T03:09:07;100613.41;;;15.02;92.43
70323;BME280;57735;56.264;43.898;2023-08-21T03:11:38;100613.41;;;15.02;92.66
70323;BME280;57735;56.264;43.898;2023-08-21T03:14:08;100616.56;;;15.06;92.80
70323;BME280;57735;56.264;43.898;2023-08-21T03:16:41;100608.34;;;15.08;92.39
70323;BME280;57735;56.264;43.898;2023-08-21T03:19:12;100604.81;;;15.07;92.21
70323;BME280;57735;56.264;43.898;2023-08-21T03:21:43;100612.66;;;15.09;92.01
70323;BME280;57735;56.264;43.898;2023-08-21T03:24:17;100608.97;;;15.10;92.18
70323;BME280;57735;56.264;43.898;2023-08-21T03:26:48;100605.94;;;15.13;92.15
70323;BME280;57735;56.264;43.898;2023-08-21T03:29:21;100612.66;;;15.09;91.84
70323;BME280;57735;56.264;43.898;2023-08-21T03:31:53;100611.38;;;15.05;92.06
70323;BME280;57735;56.264;43.898;2023-08-21T03:34:25;100613.72;;;15.08;92.25
70323;BME280;57735;56.264;43.898;2023-08-21T03:36:56;100605.16;;;15.04;91.70
70323;BME280;57735;56.264;43.898;2023-08-21T03:39:27;100620.25;;;15.05;91.70
70323;BME280;57735;56.264;43.898;2023-08-21T03:41:58;100610.38;;;15.06;91.63
70323;BME280;57735;56.264;43.898;2023-08-21T03:44:31;100615.72;;;15.06;91.53
70323;BME280;57735;56.264;43.898;2023-08-21T03:47:02;100614.22;;;15.03;90.92
70323;BME280;57735;56.264;43.898;2023-08-21T03:49:33;100606.34;;;15.01;90.93
70323;BME280;57735;56.264;43.898;2023-08-21T03:52:06;100610.38;;;15.06;90.74
70323;BME280;57735;56.264;43.898;2023-08-21T03:54:37;100607.31;;;15.09;90.63
70323;BME280;57735;56.264;43.898;2023-08-21T03:57:07;100617.03;;;15.10;90.10
70323;BME280;57735;56.264;43.898;2023-08-21T03:59:38;100618.69;;;15.11;89.80
70323;BME280;57735;56.264;43.898;2023-08-21T04:02:09;100614.34;;;15.10;89.84
70323;BME280;57735;56.264;43.898;2023-08-21T04:04:40;100617.69;;;15.12;90.00
70323;BME280;57735;56.264;43.898;2023-08-21T04:07:13;100618.31;;;15.22;90.71
70323;BME280;57735;56.264;43.898;2023-08-21T04:09:44;100612.94;;;15.22;89.33
70323;BME280;57735;56.264;43.898;2023-08-21T04:12:15;100613.41;;;15.25;88.74
70323;BME280;57735;56.264;43.898;2023-08-21T04:14:45;100619.25;;;15.29;89.09
70323;BME280;57735;56.264;43.898;2023-08-21T04:17:21;100624.25;;;15.40;89.74
70323;BME280;57735;56.264;43.898;2023-08-21T04:19:52;100621.47;;;15.48;89.79
70323;BME280;57735;56.264;43.898;2023-08-21T04:22:23;100626.00;;;15.48;88.03
70323;BME280;57735;56.264;43.898;2023-08-21T04:24:54;100620.94;;;15.53;88.32
70323;BME280;57735;56.264;43.898;2023-08-21T04:27:27;100623.13;;;15.57;87.30
70323;BME280;57735;56.264;43.898;2023-08-21T04:29:58;100610.81;;;15.63;86.24
70323;BME280;57735;56.264;43.898;2023-08-21T04:32:29;100617.44;;;15.75;86.17
70323;BME280;57735;56.264;43.898;2023-08-21T04:35:00;100619.09;;;15.76;84.74
70323;BME280;57735;56.264;43.898;2023-08-21T04:37:32;100627.41;;;15.66;84.31
70323;BME280;57735;56.264;43.898;2023-08-21T04:40:08;100624.28;;;15.55;84.21
70323;BME280;57735;56.264;43.898;2023-08-21T04:42:39;100621.56;;;15.40;84.46
70323;BME280;57735;56.264;43.898;2023-08-21T04:45:12;100627.63;;;15.34;84.38
70323;BME280;57735;56.264;43.898;2023-08-21T04:47:43;100624.97;;;15.26;85.35
70323;BME280;57735;56.264;43.898;2023-08-21T04:50:14;100627.50;;;15.27;85.54
70323;BME280;57735;56.264;43.898;2023-08-21T04:52:46;100639.72;;;15.30;84.17
70323;BME280;57735;56.264;43.898;2023-08-21T04:55:17;100636.16;;;15.38;84.83
70323;BME280;57735;56.264;43.898;2023-08-21T04:57:48;100624.16;;;15.48;83.97
70323;BME280;57735;56.264;43.898;2023-08-21T05:00:21;100628.69;;;15.48;82.85
70323;BME280;57735;56.264;43.898;2023-08-21T05:02:52;100622.75;;;15.60;83.17
70323;BME280;57735;56.264;43.898;2023-08-21T05:05:23;100630.75;;;15.68;82.70
70323;BME280;57735;56.264;43.898;2023-08-21T05:07:54;100619.47;;;15.73;81.77
70323;BME280;57735;56.264;43.898;2023-08-21T05:10:27;100622.44;;;15.78;81.54
70323;BME280;57735;56.264;43.898;2023-08-21T05:12:57;100623.56;;;15.84;81.44
70323;BME280;57735;56.264;43.898;2023-08-21T05:15:28;100625.72;;;15.88;80.49
70323;BME280;57735;56.264;43.898;2023-08-21T05:17:59;100634.53;;;15.97;80.33
70323;BME280;57735;56.264;43.898;2023-08-21T05:20:30;100640.13;;;16.10;80.38
70323;BME280;57735;56.264;43.898;2023-08-21T05:23:03;100631.78;;;16.20;79.97
70323;BME280;57735;56.264;43.898;2023-08-21T05:25:35;100643.78;;;16.32;79.73
70323;BME280;57735;56.264;43.898;2023-08-21T05:28:07;100640.63;;;16.43;79.51
70323;BME280;57735;56.264;43.898;2023-08-21T05:30:38;100641.66;;;16.57;79.08
70323;BME280;57735;56.264;43.898;2023-08-21T05:33:11;100640.94;;;16.63;78.00
70323;BME280;57735;56.264;43.898;2023-08-21T05:35:42;100649.66;;;16.65;77.99
70323;BME280;57735;56.264;43.898;2023-08-21T05:38:13;100658.09;;;16.77;78.21
70323;BME280;57735;56.264;43.898;2023-08-21T05:40:44;100654.09;;;16.87;77.59
70323;BME280;57735;56.264;43.898;2023-08-21T05:43:17;100660.38;;;17.09;76.30
70323;BME280;57735;56.264;43.898;2023-08-21T05:45:48;100662.75;;;17.19;76.68
70323;BME280;57735;56.264;43.898;2023-08-21T05:48:19;100654.63;;;17.33;76.09
70323;BME280;57735;56.264;43.898;2023-08-21T05:50:52;100662.63;;;17.41;76.19
70323;BME280;57735;56.264;43.898;2023-08-21T05:53:23;100656.16;;;17.57;74.36
70323;BME280;57735;56.264;43.898;2023-08-21T05:55:57;100663.81;;;17.60;72.47
70323;BME280;57735;56.264;43.898;2023-08-21T05:58:28;100659.09;;;17.84;73.12
70323;BME280;57735;56.264;43.898;2023-08-21T06:01:01;100655.59;;;18.11;71.61
70323;BME280;57735;56.264;43.898;2023-08-21T06:03:32;100653.28;;;18.36;71.62
70323;BME280;57735;56.264;43.898;2023-08-21T06:06:03;100653.09;;;18.37;70.47
70323;BME280;57735;56.264;43.898;2023-08-21T06:08:39;100663.59;;;18.54;70.91
70323;BME280;57735;56.264;43.898;2023-08-21T06:11:10;100672.88;;;18.72;69.43
70323;BME280;57735;56.264;43.898;2023-08-21T06:13:41;100660.19;;;18.73;68.27
70323;BME280;57735;56.264;43.898;2023-08-21T06:16:12;100662.06;;;18.72;69.02
70323;BME280;57735;56.264;43.898;2023-08-21T06:18:43;100661.19;;;18.65;67.81
70323;BME280;57735;56.264;43.898;2023-08-21T06:21:17;100670.94;;;18.66;68.93
70323;BME280;57735;56.264;43.898;2023-08-21T06:23:50;100663.28;;;18.70;68.63
70323;BME280;57735;56.264;43.898;2023-08-21T06:26:20;100656.81;;;18.64;68.15
70323;BME280;57735;56.264;43.898;2023-08-21T06:28:51;100661.72;;;18.54;67.85
70323;BME280;57735;56.264;43.898;2023-08-21T06:31:23;100662.16;;;18.58;67.36
70323;BME280;57735;56.264;43.898;2023-08-21T06:33:54;100662.41;;;18.63;67.31
70323;BME280;57735;56.264;43.898;2023-08-21T06:36:24;100668.66;;;18.63;65.24
70323;BME280;57735;56.264;43.898;2023-08-21T06:38:55;100674.09;;;18.70;66.08
70323;BME280;57735;56.264;43.898;2023-08-21T06:41:26;100669.84;;;18.89;65.41
70323;BME280;57735;56.264;43.898;2023-08-21T06:43:57;100667.63;;;19.12;65.51
70323;BME280;57735;56.264;43.898;2023-08-21T06:46:29;100659.78;;;19.30;63.17
70323;BME280;57735;56.264;43.898;2023-08-21T06:48:59;100672.66;;;19.22;63.12
70323;BME280;57735;56.264;43.898;2023-08-21T06:51:30;100666.41;;;19.14;64.15
70323;BME280;57735;56.264;43.898;2023-08-21T06:54:01;100669.56;;;19.31;65.09
70323;BME280;57735;56.264;43.898;2023-08-21T06:56:32;100668.16;;;19.48;65.67
70323;BME280;57735;56.264;43.898;2023-08-21T06:59:03;100673.22;;;19.71;64.57
70323;BME280;57735;56.264;43.898;2023-08-21T07:01:35;100678.66;;;20.11;64.53
70323;BME280;57735;56.264;43.898;2023-08-21T07:04:05;100677.41;;;20.20;62.61
70323;BME280;57735;56.264;43.898;2023-08-21T07:06:37;100668.25;;;20.21;61.52
70323;BME280;57735;56.264;43.898;2023-08-21T07:09:07;100676.19;;;20.09;62.64
70323;BME280;57735;56.264;43.898;2023-08-21T07:11:43;100678.03;;;20.15;62.31
70323;BME280;57735;56.264;43.898;2023-08-21T07:14:14;100681.56;;;20.29;62.22
70323;BME280;57735;56.264;43.898;2023-08-21T07:16:45;100681.19;;;20.39;61.52
70323;BME280;57735;56.264;43.898;2023-08-21T07:19:16;100680.53;;;20.50;60.84
70323;BME280;57735;56.264;43.898;2023-08-21T07:21:47;100678.25;;;20.53;60.77
70323;BME280;57735;56.264;43.898;2023-08-21T07:24:20;100689.28;;;20.59;61.03
70323;BME280;57735;56.264;43.898;2023-08-21T07:26:51;100681.19;;;20.39;60.11
70323;BME280;57735;56.264;43.898;2023-08-21T07:29:22;100680.16;;;20.40;59.98
70323;BME280;57735;56.264;43.898;2023-08-21T07:31:53;100681.16;;;20.32;60.86
70323;BME280;57735;56.264;43.898;2023-08-21T07:34:23;100678.03;;;20.35;60.14
70323;BME280;57735;56.264;43.898;2023-08-21T07:36:54;100680.34;;;20.38;60.09
70323;BME280;57735;56.264;43.898;2023-08-21T07:39:28;100677.22;;;20.41;59.11
70323;BME280;57735;56.264;43.898;2023-08-21T07:41:59;100675.72;;;20.32;59.16
70323;BME280;57735;56.264;43.898;2023-08-21T07:44:30;100678.69;;;20.37;58.26
70323;BME280;57735;56.264;43.898;2023-08-21T07:47:01;100683.88;;;20.52;58.08
70323;BME280;57735;56.264;43.898;2023-08-21T07:49:33;100678.44;;;20.52;57.62
70323;BME280;57735;56.264;43.898;2023-08-21T07:52:04;100678.66;;;20.50;56.79
70323;BME280;57735;56.264;43.898;2023-08-21T07:54:35;100672.81;;;20.53;56.72
70323;BME280;57735;56.264;43.898;2023-08-21T07:57:06;100677.00;;;20.49;56.09
70323;BME280;57735;56.264;43.898;2023-08-21T07:59:37;100670.72;;;20.29;56.18
70323;BME280;57735;56.264;43.898;2023-08-21T08:02:08;100674.47;;;20.28;57.68
70323;BME280;57735;56.264;43.898;2023-08-21T08:04:39;100680.72;;;20.35;56.35
70323;BME280;57735;56.264;43.898;2023-08-21T08:07:13;100675.16;;;20.43;55.34
70323;BME280;57735;56.264;43.898;2023-08-21T08:09:43;100676.38;;;20.47;55.59
70323;BME280;57735;56.264;43.898;2023-08-21T08:12:14;100671.56;;;20.49;54.78
70323;BME280;57735;56.264;43.898;2023-08-21T08:14:45;100675.72;;;20.65;55.31
70323;BME280;57735;56.264;43.898;2023-08-21T08:17:17;100667.56;;;20.72;54.09
70323;BME280;57735;56.264;43.898;2023-08-21T08:19:51;100658.41;;;20.73;51.68
70323;BME280;57735;56.264;43.898;2023-08-21T08:22:25;100662.56;;;20.75;52.20
70323;BME280;57735;56.264;43.898;2023-08-21T08:24:58;100664.19;;;20.83;51.87
70323;BME280;57735;56.264;43.898;2023-08-21T08:27:30;100658.97;;;20.88;52.16
70323;BME280;57735;56.264;43.898;2023-08-21T08:30:00;100662.94;;;20.79;50.95
70323;BME280;57735;56.264;43.898;2023-08-21T08:32:31;100664.25;;;20.70;52.74
70323;BME280;57735;56.264;43.898;2023-08-21T08:35:05;100665.72;;;20.59;53.68
70323;BME280;57735;56.264;43.898;2023-08-21T08:37:36;100661.72;;;20.75;54.32
70323;BME280;57735;56.264;43.898;2023-08-21T08:40:10;100663.03;;;21.23;51.07
70323;BME280;57735;56.264;43.898;2023-08-21T08:42:45;100669.81;;;21.39;50.08
70323;BME280;57735;56.264;43.898;2023-08-21T08:45:27;100653.25;;;21.54;49.43
70323;BME280;57735;56.264;43.898;2023-08-21T08:48:01;100643.19;;;21.61;50.89
70323;BME280;57735;56.264;43.898;2023-08-21T08:50:35;100641.03;;;21.70;50.33
70323;BME280;57735;56.264;43.898;2023-08-21T08:53:09;100639.13;;;22.02;50.66
70323;BME280;57735;56.264;43.898;2023-08-21T08:55:40;100630.56;;;22.05;48.75
70323;BME280;57735;56.264;43.898;2023-08-21T08:58:11;100633.84;;;21.82;48.75
70323;BME280;57735;56.264;43.898;2023-08-21T09:00:42;100631.63;;;21.72;50.23
70323;BME280;57735;56.264;43.898;2023-08-21T09:03:13;100635.22;;;21.66;49.55
70323;BME280;57735;56.264;43.898;2023-08-21T09:05:46;100622.81;;;21.45;49.01
70323;BME280;57735;56.264;43.898;2023-08-21T09:08:19;100625.16;;;21.42;49.50
70323;BME280;57735;56.264;43.898;2023-08-21T09:10:50;100625.16;;;21.73;50.39
70323;BME280;57735;56.264;43.898;2023-08-21T09:13:21;100620.75;;;22.04;47.24
70323;BME280;57735;56.264;43.898;2023-08-21T09:15:54;100621.63;;;21.66;48.20
70323;BME280;57735;56.264;43.898;2023-08-21T09:18:54;100622.91;;;21.64;49.78
70323;BME280;57735;56.264;43.898;2023-08-21T09:21:32;100618.91;;;21.41;50.41
70323;BME280;57735;56.264;43.898;2023-08-21T09:24:12;100623.81;;;21.26;48.63
70323;BME280;57735;56.264;43.898;2023-08-21T09:26:43;100622.78;;;21.20;49.12
70323;BME280;57735;56.264;43.898;2023-08-21T09:29:14;100619.63;;;21.23;48.24
70323;BME280;57735;56.264;43.898;2023-08-21T09:31:45;100615.69;;;21.13;45.29
70323;BME280;57735;56.264;43.898;2023-08-21T09:34:19;100619.22;;;21.13;45.51
70323;BME280;57735;56.264;43.898;2023-08-21T09:36:54;100609.75;;;21.36;44.76
70323;BME280;57735;56.264;43.898;2023-08-21T09:39:32;100616.22;;;21.66;46.72
70323;BME280;57735;56.264;43.898;2023-08-21T09:42:09;100606.69;;;21.82;45.07
70323;BME280;57735;56.264;43.898;2023-08-21T09:44:43;100602.50;;;22.11;45.50
70323;BME280;57735;56.264;43.898;2023-08-21T09:47:15;100608.41;;;22.26;44.78
70323;BME280;57735;56.264;43.898;2023-08-21T09:49:46;100609.84;;;22.10;46.49
70323;BME280;57735;56.264;43.898;2023-08-21T09:52:17;100612.34;;;21.80;46.12
70323;BME280;57735;56.264;43.898;2023-08-21T09:55:09;100607.56;;;21.51;44.55
70323;BME280;57735;56.264;43.898;2023-08-21T09:57:41;100608.31;;;21.33;44.07
70323;BME280;57735;56.264;43.898;2023-08-21T10:00:12;100622.97;;;21.12;43.70
70323;BME280;57735;56.264;43.898;2023-08-21T10:02:51;100619.97;;;20.89;44.44
70323;BME280;57735;56.264;43.898;2023-08-21T10:05:22;100617.69;;;20.93;45.61
70323;BME280;57735;56.264;43.898;2023-08-21T10:07:56;100609.28;;;21.07;45.98
70323;BME280;57735;56.264;43.898;2023-08-21T10:10:32;100616.94;;;21.23;45.25
70323;BME280;57735;56.264;43.898;2023-08-21T10:13:04;100614.75;;;21.39;44.72
70323;BME280;57735;56.264;43.898;2023-08-21T10:15:37;100610.25;;;21.57;44.38
70323;BME280;57735;56.264;43.898;2023-08-21T10:18:19;100610.00;;;21.84;44.22
70323;BME280;57735;56.264;43.898;2023-08-21T10:20:52;100605.97;;;22.18;44.51
70323;BME280;57735;56.264;43.898;2023-08-21T10:23:25;100589.72;;;22.54;42.21
70323;BME280;57735;56.264;43.898;2023-08-21T10:26:02;100585.63;;;22.63;42.86
70323;BME280;57735;56.264;43.898;2023-08-21T10:28:50;100593.94;;;22.69;41.14
70323;BME280;57735;56.264;43.898;2023-08-21T10:31:29;100594.25;;;22.60;41.68
70323;BME280;57735;56.264;43.898;2023-08-21T10:34:03;100585.16;;;22.48;41.72
70323;BME280;57735;56.264;43.898;2023-08-21T10:39:22;100591.16;;;22.39;40.81
70323;BME280;57735;56.264;43.898;2023-08-21T10:47:26;100585.94;;;22.92;40.80
70323;BME280;57735;56.264;43.898;2023-08-21T10:50:03;100584.72;;;23.18;39.52
70323;BME280;57735;56.264;43.898;2023-08-21T10:52:39;100583.47;;;23.32;38.35
70323;BME280;57735;56.264;43.898;2023-08-21T10:55:16;100586.00;;;23.15;38.76
70323;BME280;57735;56.264;43.898;2023-08-21T10:57:50;100585.94;;;22.74;37.74
70323;BME280;57735;56.264;43.898;2023-08-21T11:00:20;100589.66;;;22.61;39.66
70323;BME280;57735;56.264;43.898;2023-08-21T11:02:54;100589.66;;;22.43;41.56
70323;BME280;57735;56.264;43.898;2023-08-21T11:05:25;100598.28;;;22.33;40.93
70323;BME280;57735;56.264;43.898;2023-08-21T11:07:57;100592.56;;;22.23;40.63
70323;BME280;57735;56.264;43.898;2023-08-21T11:10:31;100583.41;;;22.17;40.65
70323;BME280;57735;56.264;43.898;2023-08-21T11:13:06;100590.22;;;22.08;41.63
70323;BME280;57735;56.264;43.898;2023-08-21T11:15:37;100595.72;;;22.20;41.62
70323;BME280;57735;56.264;43.898;2023-08-21T11:18:08;100592.41;;;22.36;41.41
70323;BME280;57735;56.264;43.898;2023-08-21T11:20:41;100588.09;;;22.10;42.03
70323;BME280;57735;56.264;43.898;2023-08-21T11:23:14;100583.66;;;21.91;42.56
70323;BME280;57735;56.264;43.898;2023-08-21T11:25:47;100580.50;;;21.69;41.86
70323;BME280;57735;56.264;43.898;2023-08-21T11:28:18;100579.38;;;21.52;43.48
70323;BME280;57735;56.264;43.898;2023-08-21T11:30:49;100580.75;;;21.36;43.80
70323;BME280;57735;56.264;43.898;2023-08-21T11:33:20;100577.41;;;21.34;43.11
70323;BME280;57735;56.264;43.898;2023-08-21T11:35:51;100572.66;;;21.30;42.78
70323;BME280;57735;56.264;43.898;2023-08-21T11:38:28;100571.66;;;21.24;42.34
70323;BME280;57735;56.264;43.898;2023-08-21T11:41:05;100571.66;;;21.17;43.30
70323;BME280;57735;56.264;43.898;2023-08-21T11:43:40;100567.50;;;21.15;42.51
70323;BME280;57735;56.264;43.898;2023-08-21T11:46:12;100579.38;;;21.27;42.90
70323;BME280;57735;56.264;43.898;2023-08-21T11:48:44;100572.81;;;21.35;43.02
70323;BME280;57735;56.264;43.898;2023-08-21T11:51:18;100573.78;;;21.47;42.58
70323;BME280;57735;56.264;43.898;2023-08-21T11:53:49;100570.91;;;21.42;42.30
70323;BME280;57735;56.264;43.898;2023-08-21T11:56:20;100567.09;;;21.74;42.87
70323;BME280;57735;56.264;43.898;2023-08-21T11:58:52;100563.75;;;22.22;41.58
70323;BME280;57735;56.264;43.898;2023-08-21T12:01:22;100561.72;;;22.54;41.78
70323;BME280;57735;56.264;43.898;2023-08-21T12:03:53;100560.09;;;22.83;41.53
70323;BME280;57735;56.264;43.898;2023-08-21T12:06:27;100558.41;;;23.00;40.92
70323;BME280;57735;56.264;43.898;2023-08-21T12:09:02;100553.56;;;23.02;39.65
70323;BME280;57735;56.264;43.898;2023-08-21T12:11:37;100550.97;;;22.95;38.56
70323;BME280;57735;56.264;43.898;2023-08-21T12:14:14;100565.41;;;22.78;39.00
70323;BME280;57735;56.264;43.898;2023-08-21T12:16:44;100561.03;;;22.40;39.98
70323;BME280;57735;56.264;43.898;2023-08-21T12:19:15;100555.75;;;22.27;40.71
70323;BME280;57735;56.264;43.898;2023-08-21T12:21:46;100547.44;;;21.97;40.68
70323;BME280;57735;56.264;43.898;2023-08-21T12:24:17;100550.81;;;21.74;41.52
70323;BME280;57735;56.264;43.898;2023-08-21T12:26:52;100553.69;;;21.79;40.80
70323;BME280;57735;56.264;43.898;2023-08-21T12:29:23;100556.94;;;21.63;40.18
70323;BME280;57735;56.264;43.898;2023-08-21T12:31:54;100555.81;;;21.52;41.04
70323;BME280;57735;56.264;43.898;2023-08-21T12:34:24;100557.13;;;21.68;40.88
70323;BME280;57735;56.264;43.898;2023-08-21T12:36:55;100561.78;;;22.11;40.63
70323;BME280;57735;56.264;43.898;2023-08-21T12:39:26;100560.03;;;22.71;39.86
70323;BME280;57735;56.264;43.898;2023-08-21T12:41:57;100559.47;;;23.29;38.16
70323;BME280;57735;56.264;43.898;2023-08-21T12:44:28;100561.56;;;23.80;37.34
70323;BME280;57735;56.264;43.898;2023-08-21T12:47:04;100562.28;;;24.34;37.19
70323;BME280;57735;56.264;43.898;2023-08-21T12:49:34;100551.75;;;24.14;37.00
70323;BME280;57735;56.264;43.898;2023-08-21T12:52:06;100548.47;;;24.64;36.70
70323;BME280;57735;56.264;43.898;2023-08-21T12:54:38;100543.94;;;25.10;35.72
70323;BME280;57735;56.264;43.898;2023-08-21T12:57:09;100542.81;;;25.39;35.23
70323;BME280;57735;56.264;43.898;2023-08-21T12:59:41;100552.94;;;24.30;36.35
70323;BME280;57735;56.264;43.898;2023-08-21T13:02:12;100551.50;;;23.81;37.36
70323;BME280;57735;56.264;43.898;2023-08-21T13:04:43;100549.97;;;23.20;37.76
70323;BME280;57735;56.264;43.898;2023-08-21T13:07:16;100549.84;;;22.67;39.08
70323;BME280;57735;56.264;43.898;2023-08-21T13:09:48;100550.25;;;22.34;40.47
70323;BME280;57735;56.264;43.898;2023-08-21T13:12:19;100545.50;;;22.11;41.11
70323;BME280;57735;56.264;43.898;2023-08-21T13:14:50;100541.81;;;21.99;40.31